createdAt,value
2023-04-06T00:01:19.695Z,97032.72
2023-04-06T00:03:46.375Z,97022.31
2023-04-06T00:06:13.363Z,97020.69
2023-04-06T00:08:40.746Z,97019.47
2023-04-06T00:11:07.338Z,97007.97
2023-04-06T00:13:34.022Z,97012.72
2023-04-06T00:16:00.627Z,97019.72
2023-04-06T00:18:27.703Z,97010.56
2023-04-06T00:20:54.339Z,97002.31
2023-04-06T00:23:21.224Z,96996.66
2023-04-06T00:25:47.762Z,97007.00
2023-04-06T00:28:14.362Z,97000.69
2023-04-06T00:30:41.912Z,96996.66
2023-04-06T00:33:08.514Z,96991.19
2023-04-06T00:35:35.869Z,96989.59
2023-04-06T00:38:02.370Z,96990.81
2023-04-06T00:40:29.606Z,96986.47
2023-04-06T00:42:56.277Z,96986.06
2023-04-06T00:45:22.828Z,96989.47
2023-04-06T00:47:49.476Z,96987.91
2023-04-06T00:50:16.089Z,96988.28
2023-04-06T00:52:42.629Z,96987.97
2023-04-06T00:55:09.420Z,96988.84
2023-04-06T00:57:36.821Z,96983.41
2023-04-06T01:00:04.108Z,96984.31
2023-04-06T01:02:30.956Z,96986.00
2023-04-06T01:04:57.697Z,96969.59
2023-04-06T01:07:25.590Z,96971.50
2023-04-06T01:09:56.106Z,96975.34
2023-04-06T01:12:22.901Z,96965.88
2023-04-06T01:14:49.587Z,96969.31
2023-04-06T01:17:16.391Z,96971.66
2023-04-06T01:19:43.002Z,96956.63
2023-04-06T01:22:09.576Z,96959.75
2023-04-06T01:24:36.147Z,96955.34
2023-04-06T01:27:02.776Z,96958.50
2023-04-06T01:29:29.355Z,96951.38
2023-04-06T01:31:56.321Z,96951.06
2023-04-06T01:34:22.984Z,96954.81
2023-04-06T01:36:49.621Z,96960.75
2023-04-06T01:39:16.632Z,96959.94
2023-04-06T01:41:43.342Z,96953.50
2023-04-06T01:44:10.003Z,96942.72
2023-04-06T01:46:36.631Z,96951.84
2023-04-06T01:49:04.384Z,96949.03
2023-04-06T01:51:31.180Z,96953.28
2023-04-06T01:53:57.729Z,96946.38
2023-04-06T01:56:24.429Z,96932.22
2023-04-06T01:58:51.189Z,96936.97
2023-04-06T02:01:17.865Z,96940.94
2023-04-06T02:03:44.487Z,96939.22
2023-04-06T02:06:11.126Z,96932.22
2023-04-06T02:08:37.655Z,96933.22
2023-04-06T02:11:04.334Z,96936.34
2023-04-06T02:13:30.980Z,96934.53
2023-04-06T02:15:58.198Z,96918.47
2023-04-06T02:18:24.765Z,96930.69
2023-04-06T02:20:51.307Z,96935.63
2023-04-06T02:23:17.997Z,96932.97
2023-04-06T02:25:44.591Z,96935.63
2023-04-06T02:28:11.402Z,96930.44
2023-04-06T02:30:37.975Z,96900.84
2023-04-06T02:33:04.575Z,96926.69
2023-04-06T02:35:31.915Z,96940.50
2023-04-06T02:37:58.444Z,96931.34
2023-04-06T02:40:25.035Z,96933.56
2023-04-06T02:42:51.649Z,96937.91
2023-04-06T02:45:18.271Z,96930.72
2023-04-06T02:47:44.916Z,96925.59
2023-04-06T02:50:11.572Z,96939.59
2023-04-06T02:52:38.164Z,96937.19
2023-04-06T02:55:05.457Z,96936.72
2023-04-06T02:57:32.066Z,96938.63
2023-04-06T02:59:58.589Z,96933.22
2023-04-06T03:02:25.219Z,96941.38
2023-04-06T03:04:51.924Z,96928.38
2023-04-06T03:07:18.507Z,96935.75
2023-04-06T03:09:45.068Z,96938.97
2023-04-06T03:12:11.614Z,96938.88
2023-04-06T03:14:38.250Z,96938.44
2023-04-06T03:17:04.819Z,96939.59
2023-04-06T03:19:31.519Z,96931.69
2023-04-06T03:21:58.096Z,96928.84
2023-04-06T03:24:24.730Z,96923.84
2023-04-06T03:26:51.338Z,96929.94
2023-04-06T03:29:17.910Z,96928.00
2023-04-06T03:31:44.815Z,96922.81
2023-04-06T03:34:11.603Z,96919.94
2023-04-06T03:36:38.302Z,96918.09
2023-04-06T03:39:05.266Z,96920.75
2023-04-06T03:41:32.279Z,96908.69
2023-04-06T03:43:58.859Z,96922.09
2023-04-06T03:46:25.745Z,96918.47
2023-04-06T03:48:52.325Z,96920.50
2023-04-06T03:51:18.882Z,96908.63
2023-04-06T03:53:45.465Z,96922.81
2023-04-06T03:56:12.060Z,96902.28
2023-04-06T03:58:38.634Z,96910.03
2023-04-06T04:01:05.438Z,96905.06
2023-04-06T04:03:32.115Z,96912.91
2023-04-06T04:05:58.817Z,96919.94
2023-04-06T04:08:26.062Z,96920.66
2023-04-06T04:10:52.685Z,96916.28
2023-04-06T04:13:19.643Z,96916.03
2023-04-06T04:15:46.257Z,96916.28
2023-04-06T04:18:12.808Z,96919.16
2023-04-06T04:20:39.630Z,96918.97
2023-04-06T04:23:06.169Z,96915.81
2023-04-06T04:25:32.739Z,96918.06
2023-04-06T04:27:59.339Z,96915.66
2023-04-06T04:30:26.081Z,96917.25
2023-04-06T04:32:52.767Z,96919.44
2023-04-06T04:35:19.438Z,96917.06
2023-04-06T04:37:46.150Z,96914.03
2023-04-06T04:40:12.930Z,96918.63
2023-04-06T04:42:39.532Z,96921.06
2023-04-06T04:45:06.464Z,96908.13
2023-04-06T04:47:33.080Z,96923.16
2023-04-06T04:49:59.673Z,96929.75
2023-04-06T04:52:26.271Z,96921.59
2023-04-06T04:54:52.928Z,96928.00
2023-04-06T04:57:19.533Z,96921.34
2023-04-06T04:59:46.369Z,96920.38
2023-04-06T05:02:13.056Z,96927.72
2023-04-06T05:04:39.729Z,96926.16
2023-04-06T05:07:10.377Z,96935.16
2023-04-06T05:09:37.029Z,96931.59
2023-04-06T05:12:03.803Z,96932.81
2023-04-06T05:14:30.747Z,96937.78
2023-04-06T05:16:57.340Z,96936.56
2023-04-06T05:19:23.995Z,96940.19
2023-04-06T05:21:50.957Z,96935.38
2023-04-06T05:24:17.701Z,96941.88
2023-04-06T05:26:44.394Z,96938.50
2023-04-06T05:29:11.985Z,96934.41
2023-04-06T05:31:38.840Z,96931.75
2023-04-06T05:34:05.785Z,96928.97
2023-04-06T05:36:33.232Z,96922.63
2023-04-06T05:39:00.114Z,96932.59
2023-04-06T05:41:27.262Z,96925.50
2023-04-06T05:43:53.874Z,96916.53
2023-04-06T05:46:21.024Z,96910.72
2023-04-06T05:48:47.806Z,96912.53
2023-04-06T05:51:14.372Z,96914.50
2023-04-06T05:53:40.994Z,96908.69
2023-04-06T05:56:07.683Z,96902.03
2023-04-06T05:58:34.231Z,96904.47
2023-04-06T06:01:02.027Z,96904.25
2023-04-06T06:03:28.669Z,96897.88
2023-04-06T06:05:55.388Z,96887.56
2023-04-06T06:08:22.026Z,96895.06
2023-04-06T06:10:48.652Z,96887.53
2023-04-06T06:13:15.569Z,96879.63
2023-04-06T06:15:42.312Z,96875.06
2023-04-06T06:18:08.942Z,96865.41
2023-04-06T06:20:35.731Z,96857.13
2023-04-06T06:23:02.271Z,96859.19
2023-04-06T06:25:31.704Z,96855.81
2023-04-06T06:27:59.502Z,96835.94
2023-04-06T06:30:27.115Z,96856.50
2023-04-06T06:32:53.733Z,96853.94
2023-04-06T06:35:20.394Z,96852.97
2023-04-06T06:37:46.930Z,96848.78
2023-04-06T06:40:14.384Z,96842.84
2023-04-06T06:42:41.125Z,96837.66
2023-04-06T06:45:08.820Z,96847.13
2023-04-06T06:47:35.489Z,96845.31
2023-04-06T06:50:03.939Z,96850.59
2023-04-06T06:52:30.684Z,96847.56
2023-04-06T06:54:57.919Z,96830.41
2023-04-06T06:57:24.705Z,96840.84
2023-04-06T06:59:51.295Z,96842.13
2023-04-06T07:02:17.859Z,96827.94
2023-04-06T07:04:44.494Z,96825.16
2023-04-06T07:07:11.260Z,96810.66
2023-04-06T07:09:37.872Z,96821.84
2023-04-06T07:12:04.606Z,96823.09
2023-04-06T07:14:31.200Z,96823.59
2023-04-06T07:16:57.847Z,96825.41
2023-04-06T07:19:24.476Z,96810.44
2023-04-06T07:21:51.067Z,96803.91
2023-04-06T07:24:17.657Z,96804.72
2023-04-06T07:26:44.479Z,96813.91
2023-04-06T07:29:11.159Z,96808.91
2023-04-06T07:31:37.895Z,96811.75
2023-04-06T07:34:04.467Z,96813.28
2023-04-06T07:36:31.058Z,96807.38
2023-04-06T07:38:57.629Z,96815.00
2023-04-06T07:41:25.053Z,96810.31
2023-04-06T07:43:51.520Z,96808.00
2023-04-06T07:46:18.143Z,96789.22
2023-04-06T07:48:44.763Z,96786.03
2023-04-06T07:51:15.199Z,96792.69
2023-04-06T07:53:41.797Z,96794.69
2023-04-06T07:56:08.486Z,96780.81
2023-04-06T07:58:35.580Z,96785.47
2023-04-06T08:01:02.785Z,96785.44
2023-04-06T08:03:29.542Z,96774.69
2023-04-06T08:05:56.353Z,96764.56
2023-04-06T08:08:23.561Z,96775.53
2023-04-06T08:10:50.188Z,96781.94
2023-04-06T08:13:17.367Z,96791.69
2023-04-06T08:15:44.248Z,96781.63
2023-04-06T08:18:11.087Z,96797.06
2023-04-06T08:20:37.773Z,96785.69
2023-04-06T08:23:04.473Z,96788.59
2023-04-06T08:25:31.097Z,96784.09
2023-04-06T08:27:57.632Z,96781.47
2023-04-06T08:30:24.261Z,96783.63
2023-04-06T08:32:51.161Z,96770.41
2023-04-06T08:35:18.076Z,96782.59
2023-04-06T08:37:44.736Z,96778.03
2023-04-06T08:40:12.228Z,96778.56
2023-04-06T08:42:45.180Z,96765.50
2023-04-06T08:45:12.182Z,96767.69
2023-04-06T08:47:38.824Z,96742.09
2023-04-06T08:50:06.042Z,96775.53
2023-04-06T08:52:34.107Z,96771.41
2023-04-06T08:55:01.488Z,96742.59
2023-04-06T08:57:28.045Z,96769.47
2023-04-06T08:59:56.681Z,96773.91
2023-04-06T09:02:23.633Z,96752.19
2023-04-06T09:04:54.001Z,96760.13
2023-04-06T09:07:21.205Z,96766.50
2023-04-06T09:09:52.561Z,96747.91
2023-04-06T09:12:29.990Z,96743.00
2023-04-06T09:14:58.102Z,96741.81
2023-04-06T09:17:26.632Z,96745.53
2023-04-06T09:19:53.686Z,96747.28
2023-04-06T09:22:21.070Z,96731.47
2023-04-06T09:24:48.382Z,96729.84
2023-04-06T09:27:16.327Z,96722.19
2023-04-06T09:29:43.722Z,96711.50
2023-04-06T09:32:17.551Z,96713.88
2023-04-06T09:34:44.276Z,96727.41
2023-04-06T09:37:18.982Z,96723.59
2023-04-06T09:39:47.351Z,96726.69
2023-04-06T09:42:26.381Z,96722.34
2023-04-06T09:44:53.050Z,96712.66
2023-04-06T09:47:21.048Z,96717.41
2023-04-06T09:49:51.058Z,96700.81
2023-04-06T09:52:19.223Z,96709.63
2023-04-06T09:54:51.140Z,96723.06
2023-04-06T09:57:33.010Z,96713.41
2023-04-06T10:00:12.236Z,96715.88
2023-04-06T10:03:13.169Z,96713.19
2023-04-06T10:05:56.153Z,96702.59
2023-04-06T10:08:26.418Z,96711.16
2023-04-06T10:10:53.564Z,96718.44
2023-04-06T10:13:20.680Z,96708.94
2023-04-06T10:15:48.031Z,96695.13
2023-04-06T10:18:14.975Z,96709.16
2023-04-06T10:21:14.039Z,96705.44
2023-04-06T10:23:50.314Z,96703.88
2023-04-06T10:26:21.710Z,96694.84
2023-04-06T10:28:50.026Z,96690.78
2023-04-06T10:31:25.045Z,96693.41
2023-04-06T10:33:56.699Z,96694.22
2023-04-06T10:36:27.898Z,96691.41
2023-04-06T10:39:00.297Z,96691.53
2023-04-06T10:41:41.761Z,96679.53
2023-04-06T10:44:08.501Z,96671.59
2023-04-06T10:46:35.418Z,96683.59
2023-04-06T10:49:15.766Z,96677.19
2023-04-06T10:51:42.443Z,96665.22
2023-04-06T10:54:10.450Z,96684.81
2023-04-06T10:56:39.823Z,96684.47
2023-04-06T10:59:07.275Z,96662.22
2023-04-06T11:01:33.830Z,96668.63
2023-04-06T11:04:00.623Z,96677.22
2023-04-06T11:06:29.971Z,96680.66
2023-04-06T11:08:57.439Z,96677.72
2023-04-06T11:11:27.430Z,96669.91
2023-04-06T11:13:55.673Z,96670.53
2023-04-06T11:16:27.733Z,96666.78
2023-04-06T11:18:54.376Z,96661.03
2023-04-06T11:21:32.156Z,96660.88
2023-04-06T11:24:13.274Z,96670.19
2023-04-06T11:26:41.585Z,96660.69
2023-04-06T11:29:08.491Z,96668.63
2023-04-06T11:31:43.352Z,96661.63
2023-04-06T11:34:20.954Z,96672.06
2023-04-06T11:36:50.088Z,96660.84
2023-04-06T11:39:21.921Z,96666.47
2023-04-06T11:41:50.211Z,96669.88
2023-04-06T11:44:17.128Z,96664.63
2023-04-06T11:46:53.314Z,96667.09
2023-04-06T11:49:20.015Z,96652.13
2023-04-06T11:51:47.438Z,96658.69
2023-04-06T11:54:14.081Z,96665.41
2023-04-06T11:56:40.830Z,96657.44
2023-04-06T11:59:07.507Z,96668.63
2023-04-06T12:04:21.773Z,96662.25
2023-04-06T12:06:49.418Z,96652.44
2023-04-06T12:09:18.491Z,96665.72
2023-04-06T12:11:45.724Z,96657.28
2023-04-06T12:14:12.661Z,96665.09
2023-04-06T12:16:39.992Z,96656.22
2023-04-06T12:19:06.974Z,96654.91
2023-04-06T12:21:36.360Z,96655.53
2023-04-06T12:24:03.009Z,96659.13
2023-04-06T12:26:29.631Z,96665.19
2023-04-06T12:28:56.714Z,96662.53
2023-04-06T12:31:24.276Z,96653.31
2023-04-06T12:33:51.730Z,96669.22
2023-04-06T12:36:22.178Z,96658.63
2023-04-06T12:38:49.848Z,96662.69
2023-04-06T12:41:16.934Z,96667.69
2023-04-06T12:43:44.717Z,96668.63
2023-04-06T12:46:12.199Z,96660.22
2023-04-06T12:48:38.909Z,96652.72
2023-04-06T12:51:06.941Z,96652.41
2023-04-06T12:53:34.783Z,96650.69
2023-04-06T12:56:02.251Z,96645.72
2023-04-06T12:58:29.329Z,96652.56
2023-04-06T13:00:57.058Z,96651.19
2023-04-06T13:03:23.780Z,96656.47
2023-04-06T13:05:51.918Z,96654.63
2023-04-06T13:08:20.643Z,96654.16
2023-04-06T13:10:53.058Z,96645.00
2023-04-06T13:13:24.366Z,96642.50
2023-04-06T13:15:52.018Z,96635.91
2023-04-06T13:18:18.680Z,96647.50
2023-04-06T13:20:45.545Z,96647.81
2023-04-06T13:23:12.367Z,96640.75
2023-04-06T13:25:38.949Z,96638.56
2023-04-06T13:28:05.514Z,96638.75
2023-04-06T13:30:32.385Z,96638.25
2023-04-06T13:32:59.118Z,96634.84
2023-04-06T13:35:25.673Z,96635.91
2023-04-06T13:37:53.270Z,96631.72
2023-04-06T13:40:20.665Z,96628.84
2023-04-06T13:42:47.665Z,96631.34
2023-04-06T13:45:14.689Z,96632.59
2023-04-06T13:47:41.423Z,96632.56
2023-04-06T13:50:08.540Z,96634.25
2023-04-06T13:52:37.138Z,96635.84
2023-04-06T13:55:04.021Z,96638.31
2023-04-06T13:57:31.081Z,96635.69
2023-04-06T13:59:57.676Z,96628.66
2023-04-06T14:02:28.420Z,96628.31
2023-04-06T14:04:55.604Z,96633.59
2023-04-06T14:07:24.501Z,96632.22
2023-04-06T14:09:51.591Z,96633.34
2023-04-06T14:12:18.214Z,96628.81
2023-04-06T14:14:44.829Z,96625.56
2023-04-06T14:17:11.600Z,96636.75
2023-04-06T14:19:38.727Z,96632.72
2023-04-06T14:22:05.737Z,96641.00
2023-04-06T14:24:32.528Z,96625.44
2023-04-06T14:26:59.134Z,96634.91
2023-04-06T14:29:25.827Z,96625.44
2023-04-06T14:31:52.430Z,96629.91
2023-04-06T14:34:19.206Z,96631.78
2023-04-06T14:36:45.872Z,96628.00
2023-04-06T14:39:12.557Z,96626.41
2023-04-06T14:41:39.158Z,96628.63
2023-04-06T14:44:06.652Z,96634.81
2023-04-06T14:46:33.886Z,96636.56
2023-04-06T14:49:00.444Z,96628.47
2023-04-06T14:51:30.472Z,96621.75
2023-04-06T14:53:57.817Z,96629.25
2023-04-06T14:56:24.943Z,96620.56
2023-04-06T14:58:52.012Z,96628.00
2023-04-06T15:01:21.576Z,96623.50
2023-04-06T15:03:48.540Z,96629.25
2023-04-06T15:06:16.509Z,96637.06
2023-04-06T15:08:44.079Z,96589.66
2023-04-06T15:11:11.249Z,96612.69
2023-04-06T15:13:38.913Z,96617.66
2023-04-06T15:16:06.796Z,96626.72
2023-04-06T15:18:34.825Z,96630.91
2023-04-06T15:21:01.637Z,96627.03
2023-04-06T15:23:31.603Z,96617.34
2023-04-06T15:25:58.806Z,96632.09
2023-04-06T15:28:25.417Z,96635.50
2023-04-06T15:30:52.571Z,96639.41
2023-04-06T15:33:21.198Z,96625.84
2023-04-06T15:35:47.929Z,96641.41
2023-04-06T15:38:14.767Z,96633.44
2023-04-06T15:40:46.296Z,96639.81
2023-04-06T15:43:13.603Z,96643.97
2023-04-06T15:45:41.846Z,96652.16
2023-04-06T15:48:09.170Z,96652.69
2023-04-06T15:50:36.612Z,96655.44
2023-04-06T15:53:03.206Z,96657.59
2023-04-06T15:55:29.856Z,96652.84
2023-04-06T15:57:56.426Z,96651.72
2023-04-06T16:00:23.243Z,96649.78
2023-04-06T16:02:50.025Z,96649.09
2023-04-06T16:05:16.889Z,96661.44
2023-04-06T16:07:43.692Z,96663.16
2023-04-06T16:10:10.781Z,96664.19
2023-04-06T16:12:37.533Z,96670.03
2023-04-06T16:15:04.576Z,96674.06
2023-04-06T16:17:31.680Z,96676.63
2023-04-06T16:19:58.309Z,96680.44
2023-04-06T16:22:24.876Z,96664.50
2023-04-06T16:24:51.481Z,96679.38
2023-04-06T16:27:18.089Z,96684.88
2023-04-06T16:29:44.748Z,96684.38
2023-04-06T16:32:12.345Z,96680.72
2023-04-06T16:34:39.050Z,96691.94
2023-04-06T16:37:05.830Z,96687.47
2023-04-06T16:39:32.485Z,96683.56
2023-04-06T16:41:59.464Z,96684.91
2023-04-06T16:44:27.372Z,96683.59
2023-04-06T16:46:53.966Z,96692.69
2023-04-06T16:49:20.935Z,96693.84
2023-04-06T16:51:49.650Z,96677.56
2023-04-06T16:54:16.785Z,96698.31
2023-04-06T16:56:43.396Z,96697.34
2023-04-06T16:59:10.076Z,96706.97
2023-04-06T17:01:36.914Z,96705.53
2023-04-06T17:04:03.788Z,96713.22
2023-04-06T17:06:31.310Z,96721.94
2023-04-06T17:08:59.745Z,96720.38
2023-04-06T17:11:32.947Z,96731.31
2023-04-06T17:14:10.300Z,96734.44
2023-04-06T17:16:36.990Z,96734.78
2023-04-06T17:19:03.645Z,96738.09
2023-04-06T17:21:30.952Z,96745.13
2023-04-06T17:23:57.531Z,96747.16
2023-04-06T17:26:24.077Z,96754.38
2023-04-06T17:28:50.668Z,96760.09
2023-04-06T17:31:17.402Z,96763.44
2023-04-06T17:33:44.376Z,96741.88
2023-04-06T17:36:12.481Z,96770.69
2023-04-06T17:38:43.573Z,96770.22
2023-04-06T17:41:12.030Z,96786.75
2023-04-06T17:43:38.899Z,96780.56
2023-04-06T17:46:06.014Z,96785.16
2023-04-06T17:48:32.658Z,96796.31
2023-04-06T17:50:59.243Z,96779.00
2023-04-06T17:53:26.273Z,96803.00
2023-04-06T17:55:53.066Z,96798.63
2023-04-06T17:58:19.637Z,96804.09
2023-04-06T18:00:46.351Z,96804.72
2023-04-06T18:03:12.993Z,96817.75
2023-04-06T18:05:39.829Z,96824.34
2023-04-06T18:08:06.456Z,96822.56
2023-04-06T18:10:38.102Z,96832.03
2023-04-06T18:13:04.744Z,96835.50
2023-04-06T18:15:31.482Z,96841.03
2023-04-06T18:17:58.141Z,96848.53
2023-04-06T18:20:24.766Z,96854.78
2023-04-06T18:22:51.530Z,96858.16
2023-04-06T18:25:18.813Z,96855.38
2023-04-06T18:27:45.524Z,96870.91
2023-04-06T18:30:14.114Z,96868.22
2023-04-06T18:32:40.873Z,96878.31
2023-04-06T18:35:09.336Z,96874.41
2023-04-06T18:37:36.430Z,96884.09
2023-04-06T18:40:04.165Z,96888.78
2023-04-06T18:42:30.727Z,96879.38
2023-04-06T18:44:57.304Z,96889.94
2023-04-06T18:47:23.878Z,96895.41
2023-04-06T18:49:50.469Z,96891.22
2023-04-06T18:52:17.017Z,96902.56
2023-04-06T18:54:43.638Z,96897.50
2023-04-06T18:57:11.317Z,96906.41
2023-04-06T18:59:37.842Z,96903.41
2023-04-06T19:02:04.516Z,96903.84
2023-04-06T19:04:31.365Z,96902.91
2023-04-06T19:06:58.097Z,96911.09
2023-04-06T19:09:24.735Z,96905.00
2023-04-06T19:11:51.473Z,96908.66
2023-04-06T19:14:18.147Z,96914.47
2023-04-06T19:16:52.213Z,96913.63
2023-04-06T19:19:19.696Z,96918.06
2023-04-06T19:21:46.740Z,96913.56
2023-04-06T19:24:13.456Z,96913.38
2023-04-06T19:26:40.095Z,96914.00
2023-04-06T19:29:06.697Z,96916.16
2023-04-06T19:31:33.309Z,96919.66
2023-04-06T19:33:59.924Z,96918.78
2023-04-06T19:36:26.647Z,96921.91
2023-04-06T19:38:53.306Z,96928.19
2023-04-06T19:41:20.046Z,96935.31
2023-04-06T19:43:46.620Z,96909.34
2023-04-06T19:46:15.472Z,96935.66
2023-04-06T19:48:42.369Z,96935.50
2023-04-06T19:51:09.085Z,96937.31
2023-04-06T19:53:36.666Z,96939.16
2023-04-06T19:56:03.305Z,96943.16
2023-04-06T19:58:29.945Z,96941.06
2023-04-06T20:00:56.589Z,96939.84
2023-04-06T20:03:23.301Z,96942.03
2023-04-06T20:05:49.976Z,96938.09
2023-04-06T20:08:16.549Z,96949.59
2023-04-06T20:10:43.176Z,96945.25
2023-04-06T20:13:09.842Z,96940.53
2023-04-06T20:15:36.458Z,96946.13
2023-04-06T20:18:03.121Z,96950.47
2023-04-06T20:20:29.846Z,96947.34
2023-04-06T20:22:56.486Z,96947.44
2023-04-06T20:25:23.283Z,96953.78
2023-04-06T20:27:53.115Z,96951.00
2023-04-06T20:30:19.756Z,96962.06
2023-04-06T20:32:46.372Z,96964.41
2023-04-06T20:35:13.073Z,96963.97
2023-04-06T20:37:39.667Z,96968.06
2023-04-06T20:40:06.872Z,96963.38
2023-04-06T20:42:34.418Z,96958.31
2023-04-06T20:45:02.518Z,96973.47
2023-04-06T20:47:29.432Z,96961.53
2023-04-06T20:49:56.049Z,96976.00
2023-04-06T20:52:23.037Z,96974.72
2023-04-06T20:54:50.734Z,96965.97
2023-04-06T20:57:17.313Z,96979.75
2023-04-06T20:59:45.186Z,96983.31
2023-04-06T21:02:12.055Z,96979.41
2023-04-06T21:04:38.897Z,96979.91
2023-04-06T21:07:06.418Z,96983.56
2023-04-06T21:09:40.062Z,96970.16
2023-04-06T21:12:07.142Z,96978.69
2023-04-06T21:14:34.171Z,96973.81
2023-04-06T21:17:00.880Z,96972.09
2023-04-06T21:19:30.023Z,96973.97
2023-04-06T21:21:56.710Z,96952.72
2023-04-06T21:24:23.378Z,96975.75
2023-04-06T21:26:50.051Z,96985.06
2023-04-06T21:29:16.698Z,96978.97
2023-04-06T21:31:43.377Z,96973.31
2023-04-06T21:34:14.296Z,96975.13
2023-04-06T21:36:41.738Z,96980.09
2023-04-06T21:39:08.904Z,96979.56
2023-04-06T21:41:35.711Z,96973.28
2023-04-06T21:44:02.420Z,96981.56
2023-04-06T21:46:29.082Z,96982.28
2023-04-06T21:48:55.932Z,96985.13
2023-04-06T21:51:23.498Z,96978.00
2023-04-06T21:53:51.676Z,96976.25
2023-04-06T21:56:23.075Z,96972.09
2023-04-06T21:58:51.315Z,96971.53
2023-04-06T22:01:18.813Z,96979.75
2023-04-06T22:03:46.568Z,96980.44
2023-04-06T22:06:13.475Z,96971.38
2023-04-06T22:08:40.124Z,96969.97
2023-04-06T22:11:09.309Z,96969.34
2023-04-06T22:13:36.478Z,96972.59
2023-04-06T22:16:04.052Z,96960.22
2023-04-06T22:18:31.233Z,96968.94
2023-04-06T22:20:58.027Z,96958.75
2023-04-06T22:23:24.861Z,96938.03
2023-04-06T22:25:52.491Z,96965.19
2023-04-06T22:28:19.075Z,96962.84
2023-04-06T22:30:45.742Z,96959.09
2023-04-06T22:33:12.418Z,96955.06
2023-04-06T22:35:39.076Z,96955.53
2023-04-06T22:38:05.711Z,96962.84
2023-04-06T22:40:32.343Z,96960.50
2023-04-06T22:42:58.921Z,96969.53
2023-04-06T22:45:26.418Z,96965.81
2023-04-06T22:47:53.245Z,96969.81
2023-04-06T22:50:19.981Z,96972.94
2023-04-06T22:52:46.517Z,96968.94
2023-04-06T22:55:13.145Z,96963.63
2023-04-06T22:57:39.707Z,96968.41
2023-04-06T23:00:06.952Z,96965.63
2023-04-06T23:02:33.699Z,96980.44
2023-04-06T23:05:00.782Z,96965.44
2023-04-06T23:07:27.314Z,96975.03
2023-04-06T23:09:53.816Z,96972.69
2023-04-06T23:12:20.380Z,96967.34
2023-04-06T23:14:46.961Z,96974.56
2023-04-06T23:17:15.081Z,96970.78
2023-04-06T23:19:41.832Z,96971.47
2023-04-06T23:22:08.514Z,96966.34
2023-04-06T23:24:35.482Z,96961.53
2023-04-06T23:27:02.066Z,96966.38
2023-04-06T23:29:28.629Z,96970.41
2023-04-06T23:31:55.459Z,96968.97
2023-04-06T23:34:22.057Z,96973.53
2023-04-06T23:36:48.889Z,96965.97
2023-04-06T23:39:15.775Z,96970.31
2023-04-06T23:41:43.153Z,96973.09
2023-04-06T23:44:09.665Z,96974.91
2023-04-06T23:46:36.390Z,96972.81
2023-04-06T23:49:03.060Z,96973.47
2023-04-06T23:51:29.602Z,96970.09
2023-04-06T23:53:56.338Z,96979.78
2023-04-06T23:56:22.953Z,96973.63
2023-04-06T23:58:49.565Z,96983.56
